Time;durP1;ratioP1;P1;durP2;ratioP2;P2;SDS_P1;SDS_P2;PMS_P1;PMS_P2;Temp;Humidity;BMP_temperature;BMP_pressure;BME280_temperature;BME280_humidity;BME280_pressure;Samples;Min_cycle;Max_cycle;Signal;HPM_P1;HPM_P2
2023/02/08 00:01:52;;;;;;;5.60;3.70;;;-0.20;99.90;;;;;;5033954;28;20217;-88
2023/02/08 00:04:17;;;;;;;3.10;2.90;;;-0.10;99.90;;;;;;5050295;28;20213;-87
2023/02/08 00:06:43;;;;;;;3.00;2.80;;;-0.10;99.90;;;;;;5033791;28;20673;-87
2023/02/08 00:09:09;;;;;;;10.50;3.20;;;-0.20;99.90;;;;;;5051421;28;20205;-87
2023/02/08 00:11:35;;;;;;;3.20;2.77;;;-0.20;99.90;;;;;;5017824;28;20232;-88
2023/02/08 00:14:01;;;;;;;3.43;3.13;;;-0.20;99.90;;;;;;5051423;28;20686;-87
2023/02/08 00:16:27;;;;;;;2.77;2.67;;;-0.10;99.90;;;;;;5068827;28;20216;-88
2023/02/08 00:18:53;;;;;;;2.87;2.63;;;-0.10;99.90;;;;;;5017616;28;20591;-88
2023/02/08 00:21:19;;;;;;;5.00;4.50;;;-0.20;99.90;;;;;;5050770;28;20690;-87
2023/02/08 00:23:45;;;;;;;3.10;2.90;;;-0.20;99.90;;;;;;5069627;28;20243;-87
2023/02/08 00:26:11;;;;;;;4.57;2.03;;;-0.20;99.90;;;;;;5050784;28;20679;-88
2023/02/08 00:28:37;;;;;;;2.27;2.17;;;-0.20;99.90;;;;;;5034171;28;20263;-87
2023/02/08 00:31:03;;;;;;;3.90;1.77;;;-0.20;99.90;;;;;;5033638;28;20325;-87
2023/02/08 00:33:29;;;;;;;3.87;3.60;;;-0.30;99.90;;;;;;5033958;28;20188;-88
2023/02/08 00:36:04;;;;;;;4.27;3.97;;;-0.30;99.90;;;;;;5034635;28;20181;-87
2023/02/08 00:38:31;;;;;;;3.60;3.27;;;-0.30;99.90;;;;;;5051004;28;20213;-87
2023/02/08 00:40:56;;;;;;;7.50;2.60;;;-0.30;99.90;;;;;;5034427;28;20578;-86
2023/02/08 00:43:22;;;;;;;3.27;3.17;;;-0.40;99.90;;;;;;5037078;28;20221;-86
2023/02/08 00:45:56;;;;;;;3.57;2.93;;;-0.40;99.90;;;;;;5020865;28;20209;-87
2023/02/08 00:48:23;;;;;;;5.27;2.93;;;-0.40;99.90;;;;;;5053719;28;20172;-88
2023/02/08 00:51:12;;;;;;;2.77;2.57;;;-0.40;99.90;;;;;;5072603;28;20181;-88
2023/02/08 00:53:39;;;;;;;3.10;2.90;;;-0.40;99.90;;;;;;5054754;28;20288;-87
2023/02/08 00:56:07;;;;;;;4.33;4.03;;;-0.40;99.90;;;;;;5038223;28;20697;-88
2023/02/08 00:58:33;;;;;;;2.10;1.97;;;-0.40;99.90;;;;;;5054755;28;20695;-88
2023/02/08 01:01:00;;;;;;;3.47;3.17;;;-0.40;99.90;;;;;;5072475;28;20230;-88
2023/02/08 01:03:26;;;;;;;2.17;2.00;;;-0.40;99.90;;;;;;5054431;28;20699;-88
2023/02/08 01:05:52;;;;;;;3.70;3.37;;;-0.40;99.90;;;;;;5055487;28;20181;-87
2023/02/08 01:08:19;;;;;;;3.73;3.47;;;-0.40;99.90;;;;;;5037753;28;20221;-87
2023/02/08 01:10:46;;;;;;;4.03;3.77;;;-0.40;99.90;;;;;;5054427;28;20308;-88
2023/02/08 01:13:12;;;;;;;4.13;2.60;;;-0.40;99.90;;;;;;5037773;28;20242;-87
2023/02/08 01:15:38;;;;;;;9.93;5.07;;;-0.40;99.90;;;;;;5021068;28;20585;-87
2023/02/08 01:18:04;;;;;;;4.73;4.20;;;-0.40;99.90;;;;;;5054598;28;20196;-88
2023/02/08 01:20:33;;;;;;;4.97;3.57;;;-0.40;99.90;;;;;;5054544;28;20278;-87
2023/02/08 01:22:58;;;;;;;3.47;3.27;;;-0.50;99.90;;;;;;5071856;28;20308;-88
2023/02/08 01:25:24;;;;;;;6.83;4.93;;;-0.50;99.90;;;;;;5021064;28;20259;-87
2023/02/08 01:27:50;;;;;;;4.20;3.40;;;-0.50;99.90;;;;;;5020940;28;20266;-88
2023/02/08 01:30:16;;;;;;;9.67;2.57;;;-0.50;99.90;;;;;;5037985;28;20186;-88
2023/02/08 01:32:42;;;;;;;5.70;3.63;;;-0.60;99.90;;;;;;5021299;28;20220;-87
2023/02/08 01:35:08;;;;;;;1.97;1.87;;;-0.60;99.90;;;;;;5053961;28;20217;-88
2023/02/08 01:37:33;;;;;;;4.60;4.33;;;-0.60;99.90;;;;;;5021201;28;20209;-88
2023/02/08 01:39:59;;;;;;;4.77;3.50;;;-0.60;99.90;;;;;;5037162;28;20270;-88
2023/02/08 01:42:25;;;;;;;2.20;2.10;;;-0.60;99.90;;;;;;5037025;28;20363;-88
2023/02/08 01:45:19;;;;;;;3.87;2.83;;;-0.60;99.90;;;;;;5071671;28;20260;-88
2023/02/08 01:47:48;;;;;;;3.23;2.97;;;-0.50;99.90;;;;;;5054052;28;20205;-88
2023/02/08 01:50:18;;;;;;;2.87;2.67;;;-0.50;99.90;;;;;;5052997;28;20221;-88
2023/02/08 01:52:44;;;;;;;2.07;1.90;;;-0.60;99.90;;;;;;5071345;28;20221;-88
2023/02/08 01:55:24;;;;;;;4.20;1.53;;;-0.80;99.90;;;;;;5053627;28;20209;-88
2023/02/08 01:57:54;;;;;;;3.50;1.60;;;-1.00;99.90;;;;;;5071429;28;20212;-88
2023/02/08 02:00:21;;;;;;;3.57;2.53;;;-1.10;99.90;;;;;;5053168;28;20205;-88
2023/02/08 02:02:52;;;;;;;6.70;5.43;;;-1.30;99.90;;;;;;5053299;28;20201;-88
2023/02/08 02:05:19;;;;;;;4.30;3.70;;;-1.40;99.90;;;;;;5052782;28;20300;-88
2023/02/08 02:07:45;;;;;;;4.67;4.37;;;-1.30;99.90;;;;;;5070720;28;20217;-88
2023/02/08 02:10:17;;;;;;;2.60;2.50;;;-1.20;99.90;;;;;;5053049;28;20231;-89
2023/02/08 02:12:44;;;;;;;3.73;3.43;;;-1.10;99.90;;;;;;5071061;28;20229;-88
2023/02/08 02:15:10;;;;;;;4.60;4.20;;;-1.10;99.90;;;;;;5053669;28;20499;-88
2023/02/08 02:17:37;;;;;;;2.57;2.47;;;-1.10;99.90;;;;;;5053184;28;20267;-87
2023/02/08 02:20:34;;;;;;;2.87;2.43;;;-1.20;99.90;;;;;;5037076;28;20233;-88
2023/02/08 02:23:27;;;;;;;4.13;3.73;;;-1.20;99.90;;;;;;5071027;28;20316;-88
2023/02/08 02:26:18;;;;;;;2.37;2.27;;;-1.10;99.90;;;;;;5053571;28;20249;-88
2023/02/08 02:29:08;;;;;;;3.67;3.37;;;-1.10;99.90;;;;;;5053194;28;20221;-88
2023/02/08 02:31:36;;;;;;;3.47;3.27;;;-1.00;99.90;;;;;;5053219;28;20718;-89
2023/02/08 02:34:17;;;;;;;7.53;4.47;;;-1.00;99.90;;;;;;5071251;28;20217;-89
2023/02/08 02:37:14;;;;;;;2.00;1.90;;;-1.00;99.90;;;;;;5053060;28;20217;-89
2023/02/08 02:39:45;;;;;;;4.27;4.00;;;-1.00;99.90;;;;;;5053311;28;20217;-87
2023/02/08 02:45:32;;;;;;;0.70;0.70;;;-0.90;99.90;;;;;;5070929;28;20676;-88
2023/02/08 02:48:33;;;;;;;4.80;2.30;;;-1.00;99.90;;;;;;5070802;28;20245;-89
2023/02/08 02:51:13;;;;;;;4.33;3.17;;;-1.00;99.90;;;;;;5036325;28;20601;-88
2023/02/08 02:53:51;;;;;;;0.80;0.80;;;-1.00;99.90;;;;;;5053217;28;20523;-88
2023/02/08 02:56:22;;;;;;;4.37;2.63;;;-1.00;99.90;;;;;;5052472;28;20243;-88
2023/02/08 02:58:49;;;;;;;3.07;2.23;;;-1.00;99.90;;;;;;5053008;28;20832;-88
2023/02/08 03:01:24;;;;;;;2.27;2.07;;;-1.00;99.90;;;;;;5036526;28;20217;-89
2023/02/08 03:03:54;;;;;;;4.17;3.87;;;-1.00;99.90;;;;;;5052425;28;20228;-89
2023/02/08 03:06:34;;;;;;;4.30;1.97;;;-1.00;99.90;;;;;;5053238;28;20181;-88
2023/02/08 03:09:35;;;;;;;3.87;3.67;;;-1.10;99.90;;;;;;5071251;28;20177;-88
2023/02/08 03:12:07;;;;;;;2.13;2.03;;;-1.10;99.90;;;;;;5052193;28;20233;-83
2023/02/08 03:14:55;;;;;;;4.33;3.70;;;-1.20;99.90;;;;;;5068163;28;20674;-84
2023/02/08 03:17:48;;;;;;;3.60;3.40;;;-1.20;99.90;;;;;;5068213;28;20216;-85
2023/02/08 03:20:40;;;;;;;9.40;3.97;;;-1.20;99.90;;;;;;5050173;28;20220;-87
2023/02/08 03:23:17;;;;;;;2.47;2.30;;;-1.20;99.90;;;;;;5067208;28;20229;-85
2023/02/08 03:26:06;;;;;;;2.07;1.97;;;-1.20;99.90;;;;;;5067466;28;20215;-84
2023/02/08 03:29:19;;;;;;;2.33;2.23;;;-1.20;99.90;;;;;;5067982;28;20292;-87
2023/02/08 03:31:48;;;;;;;4.50;4.20;;;-1.20;99.90;;;;;;4991763;28;20218;-86
2023/02/08 03:34:23;;;;;;;3.33;3.13;;;-1.20;99.90;;;;;;5068043;28;20228;-84
2023/02/08 03:36:56;;;;;;;1.47;1.43;;;-1.20;99.90;;;;;;5050382;28;20223;-83
2023/02/08 03:39:26;;;;;;;2.97;2.57;;;-1.20;99.90;;;;;;5067981;28;20240;-84
2023/02/08 03:42:00;;;;;;;3.27;2.87;;;-1.10;99.90;;;;;;5068829;28;20614;-84
2023/02/08 03:44:36;;;;;;;2.77;2.57;;;-1.00;99.90;;;;;;5049936;28;20274;-88
2023/02/08 03:47:24;;;;;;;5.23;3.10;;;-1.00;99.90;;;;;;5050394;28;20217;-84
2023/02/08 03:49:53;;;;;;;6.57;4.30;;;-1.00;99.90;;;;;;5050092;28;20215;-84
2023/02/08 03:52:20;;;;;;;3.37;3.17;;;-0.90;99.90;;;;;;5067890;28;20422;-84
2023/02/08 03:55:20;;;;;;;2.83;2.50;;;-0.90;99.90;;;;;;5049797;28;20266;-84
2023/02/08 03:58:08;;;;;;;2.50;2.40;;;-1.00;99.90;;;;;;5007073;28;20213;-84
2023/02/08 04:00:39;;;;;;;3.83;3.23;;;-1.00;99.90;;;;;;5067774;28;20246;-84
2023/02/08 04:03:12;;;;;;;3.70;2.73;;;-1.00;99.90;;;;;;5068314;28;20161;-84
2023/02/08 04:05:38;;;;;;;0.80;0.80;;;-1.00;99.90;;;;;;5050126;28;20217;-86
2023/02/08 04:08:04;;;;;;;2.63;2.43;;;-0.90;99.90;;;;;;5049962;28;20221;-85
2023/02/08 04:10:30;;;;;;;3.17;3.00;;;-0.90;99.90;;;;;;5033044;28;20216;-84
2023/02/08 04:12:55;;;;;;;3.30;2.27;;;-0.90;99.90;;;;;;5046015;28;20229;-87
2023/02/08 04:15:21;;;;;;;2.40;2.30;;;-0.90;99.90;;;;;;5046271;28;20188;-85
2023/02/08 04:17:47;;;;;;;3.47;3.27;;;-1.00;99.90;;;;;;5017100;28;20433;-86
2023/02/08 04:20:13;;;;;;;4.87;2.83;;;-1.00;99.90;;;;;;5033859;28;20275;-85
2023/02/08 04:22:38;;;;;;;3.83;2.60;;;-1.10;99.90;;;;;;5033897;28;20238;-84
2023/02/08 04:25:05;;;;;;;2.90;2.70;;;-1.10;99.90;;;;;;5051704;28;20210;-83
2023/02/08 04:27:31;;;;;;;1.47;1.37;;;-1.10;99.90;;;;;;5033594;28;20646;-85
2023/02/08 04:29:56;;;;;;;1.63;1.57;;;-1.10;99.90;;;;;;5034223;28;20178;-85
2023/02/08 04:32:22;;;;;;;2.20;2.10;;;-1.10;99.90;;;;;;5017113;28;20217;-84
2023/02/08 04:34:48;;;;;;;2.00;1.90;;;-1.10;99.90;;;;;;5017267;28;20210;-84
2023/02/08 04:37:13;;;;;;;2.20;2.10;;;-1.10;99.90;;;;;;5033545;28;20221;-84
2023/02/08 04:39:39;;;;;;;2.00;1.90;;;-1.10;99.90;;;;;;5033598;28;20217;-85
2023/02/08 04:42:05;;;;;;;3.30;3.10;;;-1.10;99.90;;;;;;5034091;28;20715;-84
2023/02/08 04:44:31;;;;;;;2.57;2.37;;;-1.10;99.90;;;;;;5016806;28;20214;-83
2023/02/08 04:46:58;;;;;;;4.47;2.37;;;-1.10;99.90;;;;;;5033305;28;20255;-85
2023/02/08 04:49:24;;;;;;;2.47;2.27;;;-1.10;99.90;;;;;;5049755;28;20217;-88
2023/02/08 04:51:49;;;;;;;3.70;2.23;;;-1.10;99.90;;;;;;5051127;28;20356;-84
2023/02/08 04:54:15;;;;;;;3.50;3.20;;;-1.20;99.90;;;;;;5016818;28;20752;-86
2023/02/08 04:56:41;;;;;;;5.50;4.10;;;-1.30;99.90;;;;;;5033159;28;20213;-87
2023/02/08 04:59:06;;;;;;;4.67;4.20;;;-1.30;99.90;;;;;;5032860;28;20221;-87
2023/02/08 05:01:32;;;;;;;2.43;2.23;;;-1.40;99.90;;;;;;5049888;28;20655;-83
2023/02/08 05:03:58;;;;;;;3.37;2.30;;;-1.40;99.90;;;;;;5032885;28;20225;-83
2023/02/08 05:06:24;;;;;;;3.90;2.73;;;-1.40;99.90;;;;;;5049269;28;20209;-84
2023/02/08 05:08:49;;;;;;;2.50;2.33;;;-1.30;99.90;;;;;;5050475;28;20178;-84
2023/02/08 05:11:23;;;;;;;2.30;2.10;;;-1.30;99.90;;;;;;5049584;28;20682;-84
2023/02/08 05:13:49;;;;;;;9.10;3.67;;;-1.20;99.90;;;;;;5070080;28;20243;-83
2023/02/08 05:16:16;;;;;;;1.90;1.80;;;-1.20;99.90;;;;;;5070295;28;20231;-85
2023/02/08 05:18:41;;;;;;;2.10;1.77;;;-1.30;99.90;;;;;;5036233;28;20215;-83
2023/02/08 05:21:08;;;;;;;3.90;2.53;;;-1.30;99.90;;;;;;5053013;28;20185;-84
2023/02/08 05:23:34;;;;;;;2.53;2.43;;;-1.40;99.90;;;;;;5035801;28;20241;-84
2023/02/08 05:26:04;;;;;;;2.73;2.50;;;-1.40;99.90;;;;;;5035765;28;20224;-84
2023/02/08 05:28:29;;;;;;;1.10;1.10;;;-1.40;99.90;;;;;;5069718;28;20213;-84
2023/02/08 05:30:55;;;;;;;2.40;2.20;;;-1.40;99.90;;;;;;5036070;28;20420;-83
2023/02/08 05:33:21;;;;;;;4.20;3.93;;;-1.30;99.90;;;;;;5019144;28;20284;-86
2023/02/08 05:35:46;;;;;;;5.40;4.93;;;-1.20;99.90;;;;;;5036150;28;20240;-84
2023/02/08 05:38:12;;;;;;;2.17;1.93;;;-1.20;99.90;;;;;;5035902;28;20225;-84
2023/02/08 05:40:38;;;;;;;3.80;3.43;;;-1.20;99.90;;;;;;5035299;28;20213;-85
2023/02/08 05:43:04;;;;;;;2.03;1.93;;;-1.20;99.90;;;;;;5052294;28;20223;-85
2023/02/08 05:45:29;;;;;;;2.47;2.37;;;-1.20;99.90;;;;;;5035552;28;20176;-84
2023/02/08 05:47:55;;;;;;;4.00;2.10;;;-1.20;99.90;;;;;;5052983;28;20177;-83
2023/02/08 05:50:21;;;;;;;3.53;3.17;;;-1.20;99.90;;;;;;5035437;28;20209;-83
2023/02/08 05:52:47;;;;;;;6.23;2.93;;;-1.20;99.90;;;;;;5037948;28;20756;-84
2023/02/08 05:55:12;;;;;;;2.03;1.93;;;-1.20;99.90;;;;;;5018110;28;20216;-83
2023/02/08 05:57:38;;;;;;;2.77;2.53;;;-1.20;99.90;;;;;;5051765;28;20266;-86
2023/02/08 06:00:05;;;;;;;2.30;2.20;;;-1.20;99.90;;;;;;5035498;28;20322;-89
2023/02/08 06:02:31;;;;;;;3.00;2.83;;;-1.20;99.90;;;;;;5025098;28;20217;-88
2023/02/08 06:04:57;;;;;;;2.40;2.30;;;-1.20;99.90;;;;;;5069196;28;20245;-86
2023/02/08 06:07:23;;;;;;;5.50;4.33;;;-1.20;99.90;;;;;;5051204;28;20652;-84
2023/02/08 06:09:48;;;;;;;3.07;2.87;;;-1.20;99.90;;;;;;5051297;28;20216;-84
2023/02/08 06:12:14;;;;;;;3.43;3.17;;;-1.30;99.90;;;;;;5034752;28;20251;-85
2023/02/08 06:14:40;;;;;;;3.90;3.43;;;-1.30;99.90;;;;;;5051549;28;20252;-88
2023/02/08 06:17:05;;;;;;;3.33;3.10;;;-1.30;99.90;;;;;;5051538;28;20577;-85
2023/02/08 06:19:31;;;;;;;1.77;1.67;;;-1.50;99.90;;;;;;5034680;28;20555;-83
2023/02/08 06:21:57;;;;;;;4.47;4.17;;;-1.60;99.90;;;;;;5034257;28;20201;-86
2023/02/08 06:24:24;;;;;;;1.93;1.90;;;-1.70;99.90;;;;;;5034357;28;20260;-84
2023/02/08 06:26:50;;;;;;;1.53;1.43;;;-1.70;99.90;;;;;;5035515;28;20234;-83
2023/02/08 06:29:15;;;;;;;4.37;4.03;;;-1.70;99.90;;;;;;5068655;28;20209;-81
2023/02/08 06:31:41;;;;;;;2.73;2.63;;;-1.60;99.90;;;;;;5033650;28;20225;-84
2023/02/08 06:34:07;;;;;;;2.53;2.33;;;-1.50;99.90;;;;;;5017773;28;20260;-85
2023/02/08 06:36:33;;;;;;;2.03;1.87;;;-1.50;99.90;;;;;;5050127;28;20174;-85
2023/02/08 06:38:58;;;;;;;2.23;2.03;;;-1.40;99.90;;;;;;5050611;28;20186;-82
2023/02/08 06:41:24;;;;;;;2.47;2.37;;;-1.50;99.90;;;;;;5050187;28;20329;-88
2023/02/08 06:43:50;;;;;;;3.73;3.53;;;-1.50;99.90;;;;;;5068149;28;20216;-82
2023/02/08 06:46:16;;;;;;;2.20;2.10;;;-1.50;99.90;;;;;;5033728;28;20209;-85
2023/02/08 06:48:41;;;;;;;2.23;1.93;;;-1.50;99.90;;;;;;5033571;28;20213;-83
2023/02/08 06:51:07;;;;;;;3.57;3.33;;;-1.60;99.90;;;;;;5018016;28;20264;-84
2023/02/08 06:53:33;;;;;;;3.97;3.33;;;-1.50;99.90;;;;;;5050420;28;20235;-82
2023/02/08 06:55:59;;;;;;;4.90;3.00;;;-1.40;99.90;;;;;;5033267;28;20272;-87
2023/02/08 06:58:24;;;;;;;3.40;3.10;;;-1.40;99.90;;;;;;5049615;28;20213;-84
2023/02/08 07:00:50;;;;;;;4.50;2.17;;;-1.40;99.90;;;;;;5049141;28;20538;-86
2023/02/08 07:03:18;;;;;;;1.33;1.27;;;-1.30;99.90;;;;;;5033768;28;20564;-83
2023/02/08 07:05:44;;;;;;;1.60;1.53;;;-1.30;99.90;;;;;;5017071;28;20258;-83
2023/02/08 07:08:10;;;;;;;2.77;2.67;;;-1.30;99.90;;;;;;5032639;28;20295;-83
2023/02/08 07:10:38;;;;;;;1.30;1.30;;;-1.30;99.90;;;;;;5016481;28;20209;-82
2023/02/08 07:13:03;;;;;;;4.00;2.47;;;-1.30;99.90;;;;;;5067257;28;20248;-85
2023/02/08 07:15:29;;;;;;;3.33;3.03;;;-1.30;99.90;;;;;;5032993;28;20181;-82
2023/02/08 07:17:55;;;;;;;1.57;1.50;;;-1.20;99.90;;;;;;5050545;28;20277;-83
2023/02/08 07:20:21;;;;;;;2.97;2.87;;;-1.00;99.90;;;;;;5033385;28;20734;-82
2023/02/08 07:22:47;;;;;;;2.27;2.17;;;-0.70;99.90;;;;;;5049054;28;20288;-82
2023/02/08 07:25:13;;;;;;;4.27;4.07;;;-0.40;99.90;;;;;;5049488;28;20292;-81
2023/02/08 07:27:39;;;;;;;3.63;3.33;;;-0.10;99.90;;;;;;5066348;28;20295;-83
2023/02/08 07:30:07;;;;;;;2.13;2.03;;;0.10;99.90;;;;;;5033048;28;20177;-81
2023/02/08 07:32:33;;;;;;;3.60;3.07;;;0.20;99.90;;;;;;5066902;28;20221;-82
2023/02/08 07:34:58;;;;;;;2.27;2.17;;;0.40;99.90;;;;;;5016728;28;20229;-83
2023/02/08 07:37:25;;;;;;;5.00;3.07;;;0.60;99.90;;;;;;5049768;28;20221;-86
2023/02/08 07:39:51;;;;;;;2.17;2.00;;;0.70;99.90;;;;;;5067640;28;20212;-86
2023/02/08 07:42:17;;;;;;;2.40;2.20;;;1.10;99.90;;;;;;5050276;28;20702;-83
2023/02/08 07:44:42;;;;;;;1.60;1.60;;;1.50;99.90;;;;;;5049601;28;20727;-83
2023/02/08 07:47:08;;;;;;;6.23;5.43;;;1.70;99.90;;;;;;5050003;28;20319;-83
2023/02/08 07:49:34;;;;;;;5.67;4.00;;;1.80;99.90;;;;;;5049535;28;20403;-82
2023/02/08 07:52:01;;;;;;;3.30;3.00;;;2.10;99.90;;;;;;5032625;28;20663;-83
2023/02/08 07:54:28;;;;;;;3.43;2.27;;;2.00;99.90;;;;;;5048898;28;20651;-83
2023/02/08 07:56:54;;;;;;;3.30;3.07;;;1.50;99.90;;;;;;5049636;28;20173;-82
2023/02/08 07:59:20;;;;;;;8.23;3.80;;;1.30;99.90;;;;;;5032931;28;20223;-85
2023/02/08 08:01:46;;;;;;;1.27;1.23;;;1.10;99.90;;;;;;5032603;28;20376;-83
2023/02/08 08:04:11;;;;;;;3.40;3.00;;;1.00;99.90;;;;;;5016200;28;20225;-86
2023/02/08 08:06:38;;;;;;;4.70;4.33;;;1.00;99.90;;;;;;5032908;28;20321;-83
2023/02/08 08:09:04;;;;;;;2.97;2.77;;;1.30;99.90;;;;;;5049802;28;20170;-82
2023/02/08 08:11:30;;;;;;;7.00;5.20;;;1.40;99.90;;;;;;5032476;28;20662;-86
2023/02/08 08:13:56;;;;;;;3.13;3.03;;;1.60;99.90;;;;;;5048375;28;20228;-82
2023/02/08 08:16:22;;;;;;;7.57;3.23;;;2.10;99.90;;;;;;5015842;28;20636;-87
2023/02/08 08:18:48;;;;;;;2.47;2.37;;;2.60;99.90;;;;;;5032788;28;20681;-83
2023/02/08 08:21:15;;;;;;;3.37;2.77;;;3.30;99.90;;;;;;5049427;28;20177;-85
2023/02/08 08:23:41;;;;;;;3.80;3.50;;;3.00;99.90;;;;;;5032476;28;20690;-84
2023/02/08 08:26:19;;;;;;;5.87;2.80;;;2.70;99.90;;;;;;5048764;28;20358;-83
2023/02/08 08:28:45;;;;;;;2.17;2.07;;;2.50;99.90;;;;;;5066575;28;20213;-88
2023/02/08 08:31:17;;;;;;;3.20;2.47;;;2.50;99.90;;;;;;5048518;28;20221;-84
2023/02/08 08:33:43;;;;;;;1.60;1.60;;;3.00;99.90;;;;;;5049448;28;20244;-86
2023/02/08 08:36:09;;;;;;;9.23;5.37;;;3.40;99.90;;;;;;5049072;28;20611;-84
2023/02/08 08:38:37;;;;;;;6.13;4.50;;;4.00;99.90;;;;;;5066606;28;20300;-82
2023/02/08 08:41:16;;;;;;;20.93;5.03;;;4.40;99.90;;;;;;5032680;28;20302;-83
2023/02/08 08:43:42;;;;;;;4.07;3.87;;;3.70;99.90;;;;;;5048907;28;20221;-83
2023/02/08 08:46:08;;;;;;;2.00;1.90;;;3.20;99.90;;;;;;5048420;28;20757;-82
2023/02/08 08:48:35;;;;;;;2.50;2.37;;;2.80;99.90;;;;;;5032463;28;20174;-86
2023/02/08 08:51:02;;;;;;;3.50;2.43;;;2.50;99.90;;;;;;5049343;28;20468;-82
2023/02/08 08:53:27;;;;;;;3.87;3.27;;;2.40;99.90;;;;;;5031989;28;20422;-86
2023/02/08 08:55:53;;;;;;;4.43;3.97;;;2.40;99.90;;;;;;5048722;28;20701;-86
2023/02/08 08:58:19;;;;;;;5.10;3.27;;;2.40;99.90;;;;;;5032014;28;20212;-83
2023/02/08 09:00:45;;;;;;;4.93;4.03;;;2.30;99.90;;;;;;5048735;28;20213;-85
2023/02/08 09:03:10;;;;;;;4.43;4.20;;;2.30;99.90;;;;;;5069678;28;20177;-82
2023/02/08 09:05:36;;;;;;;3.77;3.57;;;2.30;99.90;;;;;;5036167;28;20685;-90
2023/02/08 09:08:02;;;;;;;8.47;5.13;;;2.50;99.90;;;;;;5019073;28;20220;-83
2023/02/08 09:10:29;;;;;;;5.90;2.50;;;2.40;99.90;;;;;;5051725;28;20229;-83
2023/02/08 09:12:55;;;;;;;5.07;3.83;;;2.40;99.90;;;;;;5034902;28;20239;-85
2023/02/08 09:15:21;;;;;;;5.93;4.73;;;2.40;99.90;;;;;;5048426;28;20217;-82
2023/02/08 09:17:47;;;;;;;4.57;4.17;;;2.50;99.90;;;;;;5050831;28;20221;-83
2023/02/08 09:20:13;;;;;;;3.53;3.00;;;2.60;99.90;;;;;;5018739;28;20250;-84
2023/02/08 09:22:39;;;;;;;5.47;4.43;;;2.60;99.90;;;;;;5034779;28;20181;-86
2023/02/08 09:25:06;;;;;;;5.83;3.83;;;2.60;99.90;;;;;;5052301;28;20623;-83
2023/02/08 09:27:32;;;;;;;3.83;3.40;;;2.70;99.90;;;;;;5050923;28;20212;-84
2023/02/08 09:29:58;;;;;;;5.33;4.30;;;2.70;99.90;;;;;;5035574;28;20677;-81
2023/02/08 09:32:23;;;;;;;3.63;2.83;;;2.70;99.90;;;;;;5034788;28;20221;-84
2023/02/08 09:34:49;;;;;;;4.07;3.77;;;2.80;99.90;;;;;;5034515;28;20217;-81
2023/02/08 09:37:16;;;;;;;2.47;2.27;;;2.90;99.90;;;;;;5051710;28;20177;-84
2023/02/08 09:39:43;;;;;;;3.57;3.37;;;2.90;99.90;;;;;;5051515;28;20262;-81
2023/02/08 09:42:28;;;;;;;4.47;3.97;;;3.10;99.90;;;;;;5051674;28;20780;-81
2023/02/08 09:45:06;;;;;;;3.57;2.63;;;3.20;99.90;;;;;;5069222;28;20225;-83
2023/02/08 09:47:48;;;;;;;1.87;1.70;;;3.20;99.90;;;;;;5068892;28;20209;-85
2023/02/08 09:50:25;;;;;;;4.23;4.03;;;3.40;99.90;;;;;;5068656;28;20212;-82
2023/02/08 09:53:19;;;;;;;5.73;4.17;;;3.40;99.90;;;;;;5068152;28;20229;-82
2023/02/08 09:55:55;;;;;;;3.93;3.60;;;3.40;99.90;;;;;;5040405;28;20288;-87
2023/02/08 09:58:28;;;;;;;2.73;2.63;;;3.50;99.90;;;;;;5051726;28;20188;-82
2023/02/08 10:00:55;;;;;;;2.30;2.10;;;3.50;99.90;;;;;;5050965;28;20243;-82
2023/02/08 10:03:40;;;;;;;3.63;1.90;;;3.60;99.90;;;;;;5034107;28;20239;-84
2023/02/08 10:06:12;;;;;;;3.00;2.80;;;3.60;99.90;;;;;;5050610;28;20572;-81
2023/02/08 10:08:40;;;;;;;2.20;2.10;;;3.70;99.90;;;;;;5068051;28;20669;-83
2023/02/08 10:11:42;;;;;;;4.90;4.50;;;3.70;99.90;;;;;;5050689;28;20209;-84
2023/02/08 10:14:29;;;;;;;2.13;2.03;;;3.80;99.90;;;;;;5050466;28;20240;-82
2023/02/08 10:17:13;;;;;;;5.57;3.37;;;3.90;99.90;;;;;;5050992;28;20236;-82
2023/02/08 10:19:41;;;;;;;4.23;3.93;;;3.90;99.90;;;;;;5068384;28;20162;-82
2023/02/08 10:22:28;;;;;;;2.83;1.97;;;4.00;99.90;;;;;;5051175;28;20193;-82
2023/02/08 10:25:15;;;;;;;4.10;3.57;;;4.10;99.90;;;;;;5068989;28;20219;-82
2023/02/08 10:27:56;;;;;;;5.70;2.13;;;4.10;99.90;;;;;;5050888;28;20729;-83
2023/02/08 10:30:31;;;;;;;2.60;2.00;;;4.20;99.90;;;;;;5050852;28;20670;-83
2023/02/08 10:33:00;;;;;;;4.17;3.93;;;4.30;99.90;;;;;;5050740;28;20312;-83
2023/02/08 10:35:36;;;;;;;2.93;2.63;;;4.30;99.90;;;;;;5050219;28;20240;-83
2023/02/08 10:38:23;;;;;;;5.20;4.80;;;4.30;99.90;;;;;;5050390;28;20205;-84
2023/02/08 10:41:01;;;;;;;3.77;2.40;;;4.40;99.90;;;;;;5067690;28;20205;-82
2023/02/08 10:43:34;;;;;;;2.03;1.93;;;4.30;99.90;;;;;;5050558;28;20165;-82
2023/02/08 10:46:23;;;;;;;2.07;1.97;;;4.40;99.90;;;;;;5068999;28;20590;-81
2023/02/08 10:49:02;;;;;;;3.40;2.97;;;4.50;99.90;;;;;;5068020;28;20197;-82
2023/02/08 10:51:29;;;;;;;5.20;3.37;;;4.60;99.90;;;;;;5050094;28;20233;-83
2023/02/08 10:53:55;;;;;;;2.87;2.67;;;4.70;99.90;;;;;;5017553;28;20221;-82
2023/02/08 10:56:56;;;;;;;3.57;2.17;;;4.80;99.90;;;;;;5050186;28;20227;-84
2023/02/08 10:59:28;;;;;;;3.23;2.20;;;4.80;99.90;;;;;;5050009;28;20217;-82
2023/02/08 11:01:55;;;;;;;7.50;3.03;;;4.90;99.90;;;;;;5050059;28;20662;-85
2023/02/08 11:04:21;;;;;;;3.00;2.70;;;5.00;99.90;;;;;;5067589;28;20413;-82
2023/02/08 11:06:49;;;;;;;3.20;2.90;;;5.10;99.90;;;;;;5050308;28;20166;-82
2023/02/08 11:09:24;;;;;;;4.47;3.27;;;5.00;99.90;;;;;;5067627;28;20217;-86
2023/02/08 11:11:52;;;;;;;4.37;2.33;;;5.10;99.90;;;;;;5049499;28;20240;-82
2023/02/08 11:14:46;;;;;;;7.13;2.87;;;5.10;99.90;;;;;;5033243;28;20221;-81
2023/02/08 11:17:28;;;;;;;4.50;4.10;;;5.20;99.90;;;;;;5067454;28;20209;-84
2023/02/08 11:19:55;;;;;;;5.00;2.83;;;5.30;99.90;;;;;;5067549;28;20250;-86
2023/02/08 11:22:23;;;;;;;2.17;2.07;;;5.40;99.90;;;;;;5050100;28;20764;-82
2023/02/08 11:25:05;;;;;;;2.10;2.00;;;5.60;99.90;;;;;;5049277;28;20197;-83
2023/02/08 11:27:38;;;;;;;6.93;4.10;;;5.60;99.90;;;;;;5049436;28;20209;-83
2023/02/08 11:30:12;;;;;;;3.10;2.90;;;5.70;99.90;;;;;;5067565;28;20213;-83
2023/02/08 11:32:42;;;;;;;6.43;2.90;;;5.90;99.90;;;;;;5067350;28;20227;-83
2023/02/08 11:35:23;;;;;;;5.30;2.73;;;6.10;99.90;;;;;;5032823;28;20664;-83
2023/02/08 11:37:55;;;;;;;7.20;3.67;;;6.50;99.90;;;;;;5067143;28;20249;-82
2023/02/08 11:40:31;;;;;;;11.90;3.90;;;6.60;99.90;;;;;;5050059;28;20176;-83
2023/02/08 11:42:57;;;;;;;3.63;3.33;;;6.80;99.90;;;;;;5048828;28;20253;-86
2023/02/08 11:45:29;;;;;;;5.50;3.80;;;7.40;99.90;;;;;;5067366;28;20221;-80
2023/02/08 11:47:55;;;;;;;2.90;2.70;;;7.70;99.90;;;;;;5049071;28;20256;-80
2023/02/08 11:50:25;;;;;;;5.13;3.13;;;7.70;99.90;;;;;;5067771;28;20216;-80
2023/02/08 11:53:02;;;;;;;4.13;3.77;;;7.70;99.90;;;;;;5048676;28;20248;-81
2023/02/08 11:55:31;;;;;;;4.83;4.23;;;7.70;99.90;;;;;;5067255;28;20217;-83
2023/02/08 11:58:18;;;;;;;4.33;3.87;;;7.70;99.90;;;;;;5067683;28;20253;-80
2023/02/08 12:01:02;;;;;;;2.40;2.13;;;7.60;99.90;;;;;;5067354;28;20213;-79
2023/02/08 12:03:37;;;;;;;5.63;3.43;;;7.40;99.90;;;;;;5049355;28;20662;-80
2023/02/08 12:06:24;;;;;;;6.17;5.07;;;7.30;99.90;;;;;;5066844;28;20674;-80
2023/02/08 12:09:02;;;;;;;11.93;3.70;;;7.10;99.90;;;;;;5066773;28;20338;-80
2023/02/08 12:11:55;;;;;;;8.53;4.77;;;6.90;99.90;;;;;;5066816;28;20208;-82
2023/02/08 12:14:42;;;;;;;6.03;3.07;;;6.70;99.90;;;;;;5012614;28;20432;-81
2023/02/08 12:17:14;;;;;;;2.83;2.03;;;6.60;99.90;;;;;;5066875;28;20676;-81
2023/02/08 12:20:10;;;;;;;5.23;3.07;;;6.60;99.90;;;;;;5066847;28;20166;-81
2023/02/08 12:22:41;;;;;;;3.60;2.97;;;6.70;99.90;;;;;;5066776;28;20186;-79
2023/02/08 12:25:24;;;;;;;3.83;3.53;;;6.60;99.90;;;;;;5049329;28;20657;-81
2023/02/08 12:28:09;;;;;;;3.83;3.47;;;6.50;99.90;;;;;;5049192;28;20208;-82
2023/02/08 12:31:03;;;;;;;4.07;3.73;;;6.60;99.90;;;;;;5048480;28;20303;-80
2023/02/08 12:33:41;;;;;;;8.03;3.87;;;6.70;99.90;;;;;;5003563;28;20290;-82
2023/02/08 12:36:28;;;;;;;5.63;3.00;;;6.70;99.90;;;;;;5048653;28;20582;-79
2023/02/08 12:42:08;;;;;;;3.57;3.23;;;6.70;99.90;;;;;;5071091;28;20670;-81
2023/02/08 12:44:53;;;;;;;5.83;3.90;;;6.70;99.90;;;;;;5052318;28;20209;-81
2023/02/08 12:47:39;;;;;;;4.63;3.93;;;6.50;99.90;;;;;;5052862;28;20217;-84
2023/02/08 12:50:30;;;;;;;4.80;2.93;;;6.40;99.90;;;;;;5069339;28;20423;-85
2023/02/08 12:53:24;;;;;;;2.97;2.37;;;6.50;99.90;;;;;;5052444;28;20230;-81
2023/02/08 12:55:53;;;;;;;4.50;4.10;;;7.00;99.90;;;;;;5052133;28;20333;-81
2023/02/08 12:58:29;;;;;;;8.63;3.57;;;7.20;99.90;;;;;;5071242;28;20609;-84
2023/02/08 13:01:00;;;;;;;9.50;3.00;;;7.30;99.90;;;;;;5052740;28;20195;-83
2023/02/08 13:03:49;;;;;;;3.87;3.57;;;7.40;99.90;;;;;;5070538;28;20213;-85
2023/02/08 13:06:19;;;;;;;5.00;2.67;;;7.40;99.90;;;;;;5070687;28;20213;-83
2023/02/08 13:08:58;;;;;;;5.67;4.10;;;7.40;99.90;;;;;;5052216;28;20495;-83
2023/02/08 13:11:40;;;;;;;3.17;2.50;;;7.30;99.90;;;;;;5070328;28;20660;-82
2023/02/08 13:14:10;;;;;;;4.07;3.20;;;7.10;99.90;;;;;;5069583;28;20232;-82
2023/02/08 13:16:45;;;;;;;4.87;2.40;;;6.90;99.90;;;;;;5051839;28;20196;-81
2023/02/08 13:19:41;;;;;;;3.40;2.30;;;6.80;99.90;;;;;;5051878;28;20625;-81